Time;durP1;ratioP1;P1;durP2;ratioP2;P2;SDS_P1;SDS_P2;PMS_P1;PMS_P2;Temp;Humidity;BMP_temperature;BMP_pressure;BME280_temperature;BME280_humidity;BME280_pressure;Samples;Min_cycle;Max_cycle;Signal;HPM_P1;HPM_P2
2023/06/09 00:00:41;;;;;;;8.13;7.17;;;12.80;1.00;;;;;;5073811;28;20197;-69
2023/06/09 00:03:07;;;;;;;7.67;6.33;;;12.80;1.00;;;;;;5076529;28;20232;-67
2023/06/09 00:05:33;;;;;;;6.70;5.60;;;12.80;1.00;;;;;;5076338;28;20405;-70
2023/06/09 00:08:00;;;;;;;10.00;7.00;;;12.80;1.00;;;;;;5076437;28;20386;-70
2023/06/09 00:10:26;;;;;;;12.07;7.57;;;12.60;99.90;;;;;;5075587;28;20404;-70
2023/06/09 00:12:53;;;;;;;8.93;7.20;;;12.60;1.00;;;;;;5075137;28;21006;-68
2023/06/09 00:15:20;;;;;;;7.40;6.60;;;12.50;1.00;;;;;;5076160;28;20472;-71
2023/06/09 00:17:46;;;;;;;7.67;6.37;;;12.50;1.00;;;;;;5074047;28;20781;-68
2023/06/09 00:20:13;;;;;;;7.70;6.40;;;12.50;1.00;;;;;;5073954;28;20471;-71
2023/06/09 00:22:45;;;;;;;11.03;6.23;;;12.50;1.00;;;;;;5076040;28;20375;-70
2023/06/09 00:25:12;;;;;;;6.83;6.00;;;12.50;1.00;;;;;;5074851;28;20440;-70
2023/06/09 00:27:45;;;;;;;14.90;7.00;;;12.50;1.00;;;;;;5073657;28;20443;-70
2023/06/09 00:30:11;;;;;;;7.30;6.27;;;12.50;1.00;;;;;;5075100;28;20413;-68
2023/06/09 00:32:36;;;;;;;6.93;6.23;;;12.50;1.00;;;;;;5075742;28;20448;-70
2023/06/09 00:35:03;;;;;;;6.20;5.60;;;12.40;1.00;;;;;;5076035;28;20738;-70
2023/06/09 00:37:30;;;;;;;8.60;7.20;;;12.40;1.00;;;;;;5075224;28;20172;-71
2023/06/09 00:39:56;;;;;;;9.43;6.67;;;12.40;1.00;;;;;;5074418;28;20478;-69
2023/06/09 00:42:21;;;;;;;10.67;6.07;;;12.40;1.00;;;;;;5075251;28;20363;-68
2023/06/09 00:44:47;;;;;;;6.57;5.87;;;12.40;1.00;;;;;;5075667;28;20646;-67
2023/06/09 00:47:13;;;;;;;10.57;6.00;;;12.40;1.00;;;;;;5075806;28;20174;-70
2023/06/09 00:49:39;;;;;;;7.50;6.80;;;12.40;1.00;;;;;;5074747;28;20197;-70
2023/06/09 00:52:06;;;;;;;8.27;6.77;;;12.40;1.00;;;;;;5074671;28;20446;-67
2023/06/09 00:54:32;;;;;;;8.00;5.93;;;12.30;1.00;;;;;;5074185;28;20447;-68
2023/06/09 00:56:58;;;;;;;8.63;6.90;;;12.30;1.00;;;;;;5072590;28;20411;-68
2023/06/09 00:59:25;;;;;;;9.37;6.87;;;12.20;1.00;;;;;;5074418;28;20375;-70
2023/06/09 01:01:51;;;;;;;9.30;6.13;;;12.20;1.00;;;;;;5074537;28;20429;-71
2023/06/09 01:04:18;;;;;;;6.30;5.70;;;12.20;1.00;;;;;;5074330;28;20896;-69
2023/06/09 01:07:10;;;;;;;8.20;6.67;;;12.20;1.00;;;;;;5075374;28;20166;-68
2023/06/09 01:09:45;;;;;;;7.40;6.03;;;12.10;1.00;;;;;;5075268;28;20388;-71
2023/06/09 01:12:55;;;;;;;12.73;6.27;;;12.10;1.00;;;;;;5072016;28;20414;-70
2023/06/09 01:15:26;;;;;;;11.43;5.27;;;12.10;1.00;;;;;;5071469;28;20417;-72
2023/06/09 01:17:55;;;;;;;8.80;6.27;;;12.10;1.00;;;;;;5074076;28;20427;-73
2023/06/09 01:20:47;;;;;;;7.60;6.40;;;12.10;1.00;;;;;;5074423;28;20392;-67
2023/06/09 01:23:39;;;;;;;11.50;6.23;;;12.10;1.00;;;;;;5075003;28;20833;-70
2023/06/09 01:26:05;;;;;;;8.97;6.13;;;12.10;1.00;;;;;;5074043;28;20489;-68
2023/06/09 01:28:33;;;;;;;8.33;5.80;;;12.10;1.00;;;;;;5075036;28;20436;-72
2023/06/09 01:31:00;;;;;;;7.17;6.37;;;12.00;1.00;;;;;;5073995;28;20387;-70
2023/06/09 01:33:27;;;;;;;11.10;6.80;;;12.00;1.00;;;;;;5074075;28;20442;-70
2023/06/09 01:35:53;;;;;;;11.57;6.37;;;11.90;1.00;;;;;;5074643;28;20446;-68
2023/06/09 01:38:21;;;;;;;7.40;6.23;;;11.80;1.00;;;;;;5074681;28;20503;-72
2023/06/09 01:40:47;;;;;;;6.60;5.40;;;11.70;1.00;;;;;;5071941;28;20394;-70
2023/06/09 01:43:13;;;;;;;6.33;5.17;;;11.70;1.00;;;;;;5074488;28;20420;-72
2023/06/09 01:45:39;;;;;;;8.47;5.90;;;11.60;1.00;;;;;;5073615;28;20767;-72
2023/06/09 01:48:24;;;;;;;9.70;5.87;;;11.60;1.00;;;;;;5073644;28;20179;-69
2023/06/09 01:51:12;;;;;;;7.13;5.37;;;11.60;1.00;;;;;;5072722;28;20162;-72
2023/06/09 01:53:56;;;;;;;6.53;5.83;;;11.60;1.00;;;;;;5072104;28;20890;-69
2023/06/09 01:56:44;;;;;;;7.07;5.13;;;11.60;1.00;;;;;;5073050;28;20371;-72
2023/06/09 01:59:19;;;;;;;8.80;5.80;;;11.60;1.00;;;;;;5074390;28;20420;-72
2023/06/09 02:01:47;;;;;;;6.20;5.70;;;11.60;1.00;;;;;;5073494;28;20404;-72
2023/06/09 02:04:14;;;;;;;8.13;6.30;;;11.60;1.00;;;;;;5074011;28;20756;-71
2023/06/09 02:06:41;;;;;;;13.13;6.33;;;11.60;1.00;;;;;;5074216;28;20379;-70
2023/06/09 02:09:09;;;;;;;7.53;5.40;;;11.70;1.00;;;;;;5072126;28;20907;-72
2023/06/09 02:11:37;;;;;;;6.53;5.70;;;11.70;1.00;;;;;;5073155;28;20375;-70
2023/06/09 02:14:03;;;;;;;6.37;5.40;;;11.70;1.00;;;;;;5073811;28;20502;-71
2023/06/09 02:16:29;;;;;;;5.00;4.50;;;11.60;1.00;;;;;;5073952;28;20763;-71
2023/06/09 02:18:56;;;;;;;8.83;5.50;;;11.60;1.00;;;;;;5073902;28;20647;-68
2023/06/09 02:21:21;;;;;;;6.90;5.40;;;11.50;1.00;;;;;;5069367;28;20911;-71
2023/06/09 02:23:47;;;;;;;7.93;5.93;;;11.50;1.00;;;;;;5072616;28;20452;-71
2023/06/09 02:26:13;;;;;;;7.83;5.03;;;11.50;1.00;;;;;;5071628;28;20170;-71
2023/06/09 02:28:39;;;;;;;7.70;5.97;;;11.50;1.00;;;;;;5073650;28;20405;-72
2023/06/09 02:31:05;;;;;;;6.87;6.20;;;11.50;1.00;;;;;;5073032;28;20407;-70
2023/06/09 02:33:31;;;;;;;10.00;6.03;;;11.50;1.00;;;;;;5073647;28;20209;-72
2023/06/09 02:35:57;;;;;;;9.20;6.43;;;11.50;1.00;;;;;;5072894;28;20167;-70
2023/06/09 02:38:24;;;;;;;8.23;5.33;;;11.50;1.00;;;;;;5073587;28;20371;-72
2023/06/09 02:40:50;;;;;;;11.53;5.87;;;11.40;1.00;;;;;;5072617;28;20386;-73
2023/06/09 02:43:15;;;;;;;6.17;5.57;;;11.40;1.00;;;;;;5070332;28;20455;-73
2023/06/09 02:45:41;;;;;;;9.50;5.43;;;11.40;1.00;;;;;;5073631;28;20170;-69
2023/06/09 02:48:07;;;;;;;8.03;6.20;;;11.40;1.00;;;;;;5073426;28;20659;-69
2023/06/09 02:50:33;;;;;;;11.97;6.07;;;11.40;1.00;;;;;;5070631;28;20690;-72
2023/06/09 02:52:59;;;;;;;10.23;6.10;;;11.40;1.00;;;;;;5072976;28;20210;-72
2023/06/09 02:55:24;;;;;;;9.10;5.50;;;11.40;1.00;;;;;;5073024;28;20385;-70
2023/06/09 02:57:50;;;;;;;6.77;5.73;;;11.40;1.00;;;;;;5072593;28;20169;-74
2023/06/09 03:00:16;;;;;;;14.53;7.30;;;11.40;1.00;;;;;;5070615;28;20399;-70
2023/06/09 03:02:43;;;;;;;5.70;4.97;;;11.40;1.00;;;;;;5072846;28;20702;-70
2023/06/09 03:05:12;;;;;;;5.57;5.00;;;11.40;1.00;;;;;;5073343;28;20400;-73
2023/06/09 03:07:38;;;;;;;5.93;5.33;;;11.40;1.00;;;;;;5071295;28;20418;-69
2023/06/09 03:10:07;;;;;;;5.90;5.30;;;11.40;1.00;;;;;;5072713;28;20384;-75
2023/06/09 03:12:33;;;;;;;7.17;5.00;;;11.30;1.00;;;;;;5072964;28;20432;-72
2023/06/09 03:14:58;;;;;;;7.17;5.80;;;11.30;1.00;;;;;;5073078;28;20398;-72
2023/06/09 03:17:25;;;;;;;7.07;5.83;;;11.20;1.00;;;;;;5073080;28;20215;-72
2023/06/09 03:19:51;;;;;;;7.00;5.87;;;11.20;1.00;;;;;;5072524;28;20162;-72
2023/06/09 03:22:17;;;;;;;7.30;5.70;;;11.20;1.00;;;;;;5070163;28;20403;-69
2023/06/09 03:24:44;;;;;;;6.97;6.27;;;11.20;1.00;;;;;;5072790;28;20752;-70
2023/06/09 03:27:10;;;;;;;13.13;6.30;;;11.20;1.00;;;;;;5073036;28;20162;-69
2023/06/09 03:29:36;;;;;;;10.07;6.83;;;11.20;1.00;;;;;;5072966;28;20371;-69
2023/06/09 03:32:02;;;;;;;7.50;5.77;;;11.20;1.00;;;;;;5072063;28;20363;-72
2023/06/09 03:34:29;;;;;;;5.97;5.37;;;11.30;1.00;;;;;;5073031;28;20206;-69
2023/06/09 03:36:55;;;;;;;6.33;5.40;;;11.30;1.00;;;;;;5076287;28;20462;-73
2023/06/09 03:39:21;;;;;;;7.70;5.20;;;11.30;1.00;;;;;;5076860;28;20884;-72
2023/06/09 03:41:47;;;;;;;6.07;5.30;;;11.30;1.00;;;;;;5076121;28;20227;-70
2023/06/09 03:44:13;;;;;;;9.97;5.80;;;11.30;1.00;;;;;;5076708;28;20444;-73
2023/06/09 03:46:38;;;;;;;7.53;5.90;;;11.30;1.00;;;;;;5076921;28;20174;-70
2023/06/09 03:49:04;;;;;;;9.00;5.60;;;11.30;1.00;;;;;;5075966;28;20186;-70
2023/06/09 03:51:30;;;;;;;8.97;5.20;;;11.40;1.00;;;;;;5075031;28;20182;-70
2023/06/09 03:53:56;;;;;;;10.90;6.10;;;11.40;1.00;;;;;;5075692;28;20201;-70
2023/06/09 03:56:21;;;;;;;7.33;5.03;;;11.40;1.00;;;;;;5076819;28;20642;-69
2023/06/09 03:58:48;;;;;;;7.00;5.60;;;11.40;1.00;;;;;;5076591;28;20201;-72
2023/06/09 04:01:17;;;;;;;7.90;5.90;;;11.40;1.00;;;;;;5075636;28;20166;-73
2023/06/09 04:03:43;;;;;;;12.00;5.53;;;11.40;1.00;;;;;;5075355;28;20426;-69
2023/06/09 04:06:09;;;;;;;5.37;4.10;;;11.40;1.00;;;;;;5075680;28;20407;-72
2023/06/09 04:08:34;;;;;;;8.23;5.60;;;11.40;1.00;;;;;;5075446;28;20155;-72
2023/06/09 04:11:00;;;;;;;12.93;5.67;;;11.50;1.00;;;;;;5075491;28;20253;-68
2023/06/09 04:13:26;;;;;;;9.90;5.90;;;11.50;1.00;;;;;;5075313;28;20201;-72
2023/06/09 04:15:51;;;;;;;12.47;7.40;;;11.60;1.00;;;;;;5076141;28;20158;-71
2023/06/09 04:18:19;;;;;;;8.27;6.50;;;11.60;1.00;;;;;;5075300;28;20657;-69
2023/06/09 04:20:44;;;;;;;6.60;5.80;;;11.70;1.00;;;;;;5072182;28;20155;-69
2023/06/09 04:23:10;;;;;;;7.40;5.70;;;11.70;1.00;;;;;;5055972;28;20842;-70
2023/06/09 04:25:36;;;;;;;7.97;5.33;;;11.70;1.00;;;;;;5056185;28;20203;-73
2023/06/09 04:28:03;;;;;;;5.80;5.27;;;11.80;1.00;;;;;;5054964;28;20195;-67
2023/06/09 04:30:30;;;;;;;7.53;6.17;;;11.80;1.00;;;;;;5054546;28;20163;-69
2023/06/09 04:33:00;;;;;;;6.60;6.00;;;11.90;1.00;;;;;;5070932;28;20467;-70
2023/06/09 04:35:26;;;;;;;9.80;6.80;;;12.00;1.00;;;;;;5074912;28;20934;-71
2023/06/09 04:37:52;;;;;;;9.53;6.47;;;12.00;1.00;;;;;;5075980;28;20392;-68
2023/06/09 04:40:29;;;;;;;10.40;5.63;;;12.10;1.00;;;;;;5075026;28;20623;-70
2023/06/09 04:42:57;;;;;;;8.97;6.13;;;12.20;1.00;;;;;;5075748;28;20395;-71
2023/06/09 04:45:33;;;;;;;9.57;6.60;;;12.30;1.00;;;;;;5074492;28;20447;-68
2023/06/09 04:47:59;;;;;;;6.50;5.80;;;12.40;1.00;;;;;;5075676;28;20404;-71
2023/06/09 04:50:32;;;;;;;9.90;6.60;;;12.40;1.00;;;;;;5074278;28;21285;-70
2023/06/09 04:52:59;;;;;;;15.83;7.83;;;12.60;1.00;;;;;;5075169;28;20426;-71
2023/06/09 04:55:26;;;;;;;11.10;6.93;;;12.60;1.00;;;;;;5075596;28;20377;-71
2023/06/09 04:57:56;;;;;;;10.57;6.23;;;12.70;1.00;;;;;;5075573;28;20396;-70
2023/06/09 05:00:23;;;;;;;7.60;5.60;;;12.80;1.00;;;;;;5073422;28;20424;-67
2023/06/09 05:02:51;;;;;;;7.57;6.20;;;12.90;1.00;;;;;;5075337;28;20765;-70
2023/06/09 05:05:16;;;;;;;11.60;6.93;;;13.00;1.00;;;;;;5075399;28;20483;-68
2023/06/09 05:07:42;;;;;;;10.87;8.57;;;13.00;9.70;;;;;;5075356;28;20538;-71
2023/06/09 05:10:09;;;;;;;8.90;6.60;;;13.10;23.80;;;;;;5073464;28;20257;-67
2023/06/09 05:12:35;;;;;;;9.00;7.07;;;13.20;34.00;;;;;;5075235;28;20186;-72
2023/06/09 05:15:02;;;;;;;11.30;6.67;;;13.30;44.60;;;;;;5074361;28;20424;-70
2023/06/09 05:17:27;;;;;;;10.73;5.80;;;13.40;60.60;;;;;;5075231;28;20944;-71
2023/06/09 05:19:53;;;;;;;12.20;6.43;;;13.40;72.70;;;;;;5073621;28;20496;-73
2023/06/09 05:22:19;;;;;;;10.80;6.40;;;13.50;84.80;;;;;;5073705;28;20534;-68
2023/06/09 05:24:45;;;;;;;8.30;6.13;;;13.60;93.30;;;;;;5074936;28;20566;-71
2023/06/09 05:27:11;;;;;;;13.13;6.50;;;13.70;93.40;;;;;;5073485;28;20166;-72
2023/06/09 05:29:37;;;;;;;7.57;6.13;;;13.80;98.90;;;;;;5074899;28;20369;-71
2023/06/09 05:32:03;;;;;;;7.60;5.60;;;13.90;99.90;;;;;;5073936;28;20165;-71
2023/06/09 05:34:32;;;;;;;11.10;5.93;;;14.00;99.90;;;;;;5073431;28;20456;-71
2023/06/09 05:36:57;;;;;;;10.67;6.07;;;14.10;99.90;;;;;;5074803;28;20419;-67
2023/06/09 05:39:23;;;;;;;10.07;6.77;;;14.20;99.90;;;;;;5074723;28;20890;-72
2023/06/09 05:41:49;;;;;;;26.43;17.57;;;14.40;99.90;;;;;;5072934;28;20178;-66
2023/06/09 05:44:15;;;;;;;19.30;9.30;;;14.50;99.90;;;;;;5073497;28;20204;-70
2023/06/09 05:46:40;;;;;;;14.07;7.60;;;14.60;99.90;;;;;;5073587;28;20413;-67
2023/06/09 05:49:06;;;;;;;9.03;7.00;;;14.70;99.90;;;;;;5074712;28;20523;-66
2023/06/09 05:51:36;;;;;;;16.93;7.53;;;14.80;99.90;;;;;;5072552;28;20173;-70
2023/06/09 05:54:02;;;;;;;16.13;8.57;;;14.90;99.90;;;;;;5072238;28;20686;-69
2023/06/09 05:56:27;;;;;;;13.73;8.67;;;15.00;99.90;;;;;;5055403;28;20416;-66
2023/06/09 05:59:01;;;;;;;11.30;6.90;;;15.20;99.90;;;;;;5053909;28;20155;-69
2023/06/09 06:01:27;;;;;;;12.90;7.30;;;15.30;99.90;;;;;;5053467;28;20163;-68
2023/06/09 06:03:53;;;;;;;8.70;6.40;;;15.30;99.90;;;;;;5053344;28;20432;-70
2023/06/09 06:06:19;;;;;;;13.27;6.37;;;15.40;99.90;;;;;;5054261;28;20167;-69
2023/06/09 06:08:44;;;;;;;13.00;7.13;;;15.50;99.90;;;;;;5054211;28;20423;-66
2023/06/09 06:11:10;;;;;;;10.73;6.40;;;15.60;99.90;;;;;;5071552;28;20227;-66
2023/06/09 06:13:36;;;;;;;10.00;6.63;;;15.70;99.90;;;;;;5073963;28;20709;-69
2023/06/09 06:16:02;;;;;;;10.47;7.00;;;15.70;99.90;;;;;;5073921;28;20511;-69
2023/06/09 06:18:27;;;;;;;12.60;7.50;;;15.80;99.90;;;;;;5074035;28;20178;-67
2023/06/09 06:20:53;;;;;;;12.50;6.63;;;15.80;99.90;;;;;;5073024;28;20158;-69
2023/06/09 06:23:19;;;;;;;9.27;7.17;;;15.90;99.90;;;;;;5072867;28;20182;-71
2023/06/09 06:25:45;;;;;;;14.73;6.07;;;16.00;99.90;;;;;;5072572;28;20182;-68
2023/06/09 06:28:10;;;;;;;14.23;6.20;;;16.20;99.90;;;;;;5073700;28;20159;-69
2023/06/09 06:30:37;;;;;;;13.60;6.13;;;16.30;99.90;;;;;;5071245;28;20653;-69
2023/06/09 06:33:07;;;;;;;9.93;7.23;;;16.40;99.90;;;;;;5072382;28;20206;-70
2023/06/09 06:35:33;;;;;;;9.83;7.10;;;16.40;99.90;;;;;;5073620;28;20969;-67
2023/06/09 06:37:59;;;;;;;13.80;6.73;;;16.60;99.90;;;;;;5071764;28;20429;-69
2023/06/09 06:40:26;;;;;;;10.70;6.90;;;16.70;99.90;;;;;;5069392;28;20566;-68
2023/06/09 06:42:52;;;;;;;15.00;8.33;;;16.80;99.90;;;;;;5073393;28;20927;-70
2023/06/09 06:45:18;;;;;;;9.97;6.50;;;16.80;99.90;;;;;;5073398;28;20430;-70
2023/06/09 06:47:45;;;;;;;12.70;6.57;;;16.80;99.90;;;;;;5073653;28;20404;-67
2023/06/09 06:50:12;;;;;;;11.87;7.03;;;16.90;99.90;;;;;;5071212;28;20789;-67
2023/06/09 06:52:37;;;;;;;13.20;7.17;;;16.90;99.90;;;;;;5071765;28;20459;-67
2023/06/09 06:55:05;;;;;;;15.90;6.73;;;17.00;99.90;;;;;;5073413;28;20401;-67
2023/06/09 06:57:30;;;;;;;13.33;6.77;;;17.00;99.90;;;;;;5073227;28;20170;-70
2023/06/09 06:59:56;;;;;;;15.23;6.50;;;17.20;99.90;;;;;;5072511;28;20799;-68
2023/06/09 07:02:22;;;;;;;13.00;6.90;;;17.30;99.90;;;;;;5072553;28;20166;-68
2023/06/09 07:04:48;;;;;;;17.27;7.20;;;17.40;99.90;;;;;;5072868;28;20194;-66
2023/06/09 07:07:13;;;;;;;13.87;5.47;;;17.50;99.90;;;;;;5072061;28;20174;-68
2023/06/09 07:09:39;;;;;;;11.00;6.30;;;17.60;99.90;;;;;;5072424;28;20181;-67
2023/06/09 07:12:05;;;;;;;16.20;7.60;;;17.80;96.20;;;;;;5072271;28;20193;-68
2023/06/09 07:14:31;;;;;;;10.37;6.07;;;17.80;94.90;;;;;;5072912;28;20586;-69
2023/06/09 07:16:57;;;;;;;6.63;5.20;;;17.90;75.10;;;;;;5073114;28;20396;-67
2023/06/09 07:19:22;;;;;;;10.00;7.07;;;18.10;74.70;;;;;;5070911;28;20174;-67
2023/06/09 07:21:48;;;;;;;13.50;6.77;;;18.10;41.20;;;;;;5071220;28;20182;-66
2023/06/09 07:24:14;;;;;;;6.17;5.10;;;18.20;21.10;;;;;;5072949;28;20247;-67
2023/06/09 07:26:40;;;;;;;11.60;6.17;;;18.30;18.00;;;;;;5072922;28;20170;-68
2023/06/09 07:29:05;;;;;;;8.73;5.73;;;18.50;10.50;;;;;;5073050;28;20174;-65
2023/06/09 07:31:31;;;;;;;10.73;5.53;;;18.50;1.00;;;;;;5072042;28;20223;-67
2023/06/09 07:33:57;;;;;;;7.97;5.60;;;18.60;1.00;;;;;;5071809;28;20206;-67
2023/06/09 07:36:24;;;;;;;11.83;7.50;;;18.70;1.00;;;;;;5072843;28;20162;-67
2023/06/09 07:38:50;;;;;;;12.00;6.70;;;18.80;1.00;;;;;;5071029;28;20166;-68
2023/06/09 07:41:15;;;;;;;10.13;5.33;;;19.00;1.00;;;;;;5071226;28;20511;-68
2023/06/09 07:43:43;;;;;;;9.80;5.87;;;19.10;1.00;;;;;;5072814;28;20570;-66
2023/06/09 07:46:10;;;;;;;15.87;5.87;;;19.20;1.00;;;;;;5072021;28;20228;-65
2023/06/09 07:48:38;;;;;;;10.07;6.40;;;19.40;1.00;;;;;;5072815;28;20850;-69
2023/06/09 07:51:04;;;;;;;8.53;5.80;;;19.50;1.00;;;;;;5071861;28;20404;-70
2023/06/09 07:53:30;;;;;;;10.43;6.17;;;19.60;1.00;;;;;;5072497;28;20444;-68
2023/06/09 07:55:56;;;;;;;9.13;6.10;;;19.70;1.00;;;;;;5072745;28;20927;-70
2023/06/09 07:58:22;;;;;;;8.80;5.20;;;19.70;1.00;;;;;;5072169;28;20518;-68
2023/06/09 08:00:48;;;;;;;9.97;6.30;;;19.70;1.00;;;;;;5069547;28;20432;-69
2023/06/09 08:03:13;;;;;;;14.07;6.57;;;19.90;1.00;;;;;;5072554;28;20265;-70
2023/06/09 08:05:39;;;;;;;7.67;5.10;;;19.90;1.00;;;;;;5071379;28;20641;-68
2023/06/09 08:08:05;;;;;;;9.20;5.43;;;20.10;1.00;;;;;;5071763;28;20166;-68
2023/06/09 08:10:31;;;;;;;8.70;5.97;;;20.20;1.00;;;;;;5071841;28;20170;-70
2023/06/09 08:12:57;;;;;;;9.63;5.13;;;20.20;1.00;;;;;;5072383;28;20483;-70
2023/06/09 08:15:22;;;;;;;13.77;5.67;;;20.30;1.00;;;;;;5070978;28;20182;-69
2023/06/09 08:17:48;;;;;;;6.47;4.90;;;20.30;1.00;;;;;;5072704;28;20159;-69
2023/06/09 08:20:14;;;;;;;9.50;5.30;;;20.30;1.00;;;;;;5072202;28;20209;-67
2023/06/09 08:22:39;;;;;;;9.83;6.13;;;20.40;1.00;;;;;;5076083;28;20181;-69
2023/06/09 08:25:07;;;;;;;7.80;5.47;;;20.60;1.00;;;;;;5076160;28;20249;-68
2023/06/09 08:27:32;;;;;;;6.60;4.80;;;20.60;1.00;;;;;;5075301;28;20217;-66
2023/06/09 08:29:58;;;;;;;13.93;5.90;;;20.70;1.00;;;;;;5074796;28;20809;-67
2023/06/09 08:32:25;;;;;;;7.00;4.70;;;20.80;1.00;;;;;;5074854;28;20189;-67
2023/06/09 08:34:51;;;;;;;6.80;5.20;;;21.00;1.00;;;;;;5074558;28;20166;-67
2023/06/09 08:37:16;;;;;;;9.60;4.67;;;21.20;1.00;;;;;;5075796;28;20458;-68
2023/06/09 08:39:42;;;;;;;7.53;4.60;;;21.30;1.00;;;;;;5075905;28;20184;-68
2023/06/09 08:42:16;;;;;;;4.73;4.23;;;21.50;1.00;;;;;;5074857;28;20170;-66
2023/06/09 08:44:46;;;;;;;11.03;4.67;;;21.70;1.00;;;;;;5073717;28;20213;-68
2023/06/09 08:47:15;;;;;;;6.37;4.47;;;21.80;1.00;;;;;;5053880;28;20830;-70
2023/06/09 08:49:41;;;;;;;5.97;4.47;;;22.00;1.00;;;;;;5061321;28;20527;-70
2023/06/09 08:52:07;;;;;;;6.17;4.60;;;22.20;1.00;;;;;;5072719;28;21004;-69
2023/06/09 08:54:33;;;;;;;7.70;4.67;;;22.40;1.00;;;;;;5075542;28;20574;-66
2023/06/09 08:56:59;;;;;;;5.43;4.57;;;22.40;99.90;;;;;;5075583;28;20432;-69
2023/06/09 08:59:30;;;;;;;7.30;5.47;;;22.40;99.90;;;;;;5074233;28;20419;-69
2023/06/09 09:01:56;;;;;;;11.40;5.40;;;22.50;1.00;;;;;;5073310;28;20499;-69
2023/06/09 09:04:22;;;;;;;10.37;5.10;;;22.60;1.00;;;;;;5072563;28;20456;-70
2023/06/09 09:06:48;;;;;;;11.80;5.50;;;22.80;1.00;;;;;;5073943;28;20424;-70
2023/06/09 09:09:13;;;;;;;11.13;5.87;;;23.00;1.00;;;;;;5075305;28;20183;-69
2023/06/09 09:11:40;;;;;;;10.50;5.47;;;23.00;1.00;;;;;;5074368;28;20198;-70
2023/06/09 09:14:10;;;;;;;10.77;5.53;;;23.00;1.00;;;;;;5075344;28;20198;-69
2023/06/09 09:16:36;;;;;;;7.10;5.00;;;23.20;1.00;;;;;;5074426;28;20399;-70
2023/06/09 09:19:03;;;;;;;25.40;6.80;;;23.40;1.00;;;;;;5074470;28;20413;-69
2023/06/09 09:21:29;;;;;;;16.90;5.80;;;23.50;1.00;;;;;;5074315;28;20163;-70
2023/06/09 09:24:07;;;;;;;13.20;5.80;;;23.60;1.00;;;;;;5074905;28;20423;-70
2023/06/09 09:26:33;;;;;;;9.83;5.30;;;23.70;1.00;;;;;;5074398;28;20399;-71
2023/06/09 09:29:04;;;;;;;6.80;5.40;;;23.60;1.00;;;;;;5072202;28;20454;-67
2023/06/09 09:31:38;;;;;;;7.60;4.97;;;23.30;1.00;;;;;;5073520;28;20388;-68
2023/06/09 09:34:09;;;;;;;9.00;5.27;;;23.20;99.90;;;;;;5074311;28;20447;-72
2023/06/09 09:36:41;;;;;;;10.77;5.17;;;23.40;1.00;;;;;;5074899;28;20389;-66
2023/06/09 09:39:06;;;;;;;8.50;4.73;;;23.40;99.90;;;;;;5073421;28;20413;-67
2023/06/09 09:41:32;;;;;;;7.17;4.37;;;23.50;99.90;;;;;;5071463;28;20436;-67
2023/06/09 09:43:58;;;;;;;15.00;4.67;;;23.50;99.90;;;;;;5072822;28;20205;-69
2023/06/09 09:46:24;;;;;;;5.47;4.50;;;23.70;99.90;;;;;;5074652;28;20166;-69
2023/06/09 09:48:51;;;;;;;6.77;6.13;;;24.10;99.90;;;;;;5074536;28;20655;-70
2023/06/09 09:51:20;;;;;;;7.37;5.10;;;24.70;99.90;;;;;;5072892;28;20428;-69
2023/06/09 09:53:45;;;;;;;8.03;4.27;;;25.30;99.90;;;;;;5074270;28;20455;-70
2023/06/09 09:56:14;;;;;;;5.47;3.80;;;25.30;99.90;;;;;;5073047;28;20432;-68
2023/06/09 09:58:44;;;;;;;9.50;4.30;;;25.40;99.90;;;;;;5074502;28;20158;-69
2023/06/09 10:01:13;;;;;;;4.30;3.90;;;25.30;99.90;;;;;;5072827;28;20440;-70
2023/06/09 10:03:43;;;;;;;7.00;4.10;;;25.80;99.90;;;;;;5074183;28;20434;-70
2023/06/09 10:06:14;;;;;;;5.57;4.47;;;26.20;99.90;;;;;;5074141;28;20401;-69
2023/06/09 10:08:42;;;;;;;11.33;4.97;;;26.20;99.90;;;;;;5073379;28;20424;-71
2023/06/09 10:11:08;;;;;;;6.63;4.30;;;26.00;99.90;;;;;;5073270;28;20856;-70
2023/06/09 10:13:34;;;;;;;6.07;3.90;;;26.10;99.90;;;;;;5073980;28;20452;-69
2023/06/09 10:16:00;;;;;;;6.40;4.20;;;26.50;99.90;;;;;;5074160;28;20194;-71
2023/06/09 10:18:26;;;;;;;12.90;4.20;;;26.60;99.90;;;;;;5072647;28;20257;-71
2023/06/09 10:20:53;;;;;;;7.20;4.30;;;26.70;99.90;;;;;;5071969;28;20170;-69
2023/06/09 10:23:20;;;;;;;7.90;3.83;;;26.80;99.90;;;;;;5072826;28;20948;-69
2023/06/09 10:25:49;;;;;;;5.67;4.27;;;26.80;99.90;;;;;;5071525;28;20440;-70
2023/06/09 10:28:16;;;;;;;4.70;4.20;;;26.90;99.90;;;;;;5072466;28;20904;-70
2023/06/09 10:30:43;;;;;;;7.50;4.53;;;27.00;99.90;;;;;;5072942;28;20769;-72
2023/06/09 10:33:20;;;;;;;5.83;4.40;;;27.40;99.90;;;;;;5073610;28;20460;-70
2023/06/09 10:35:48;;;;;;;4.73;3.67;;;27.40;99.90;;;;;;5073605;28;20412;-70
2023/06/09 10:38:39;;;;;;;10.30;3.70;;;27.30;99.90;;;;;;5069586;28;20428;-70
2023/06/09 10:41:28;;;;;;;8.50;3.60;;;27.20;99.90;;;;;;5072721;28;20403;-70
2023/06/09 10:44:20;;;;;;;4.20;3.80;;;27.20;99.90;;;;;;5073171;28;20452;-70
2023/06/09 10:46:46;;;;;;;9.90;4.13;;;27.30;99.90;;;;;;5073580;28;20550;-70
2023/06/09 10:49:36;;;;;;;7.87;4.43;;;27.00;99.90;;;;;;5073615;28;20917;-69
2023/06/09 10:52:07;;;;;;;7.73;4.13;;;26.80;99.90;;;;;;5070227;28;20955;-71
2023/06/09 10:54:35;;;;;;;9.07;4.43;;;27.10;99.90;;;;;;5073160;28;20460;-70
2023/06/09 10:57:41;;;;;;;5.23;4.73;;;27.30;99.90;;;;;;5070981;28;20798;-70
2023/06/09 11:00:15;;;;;;;9.73;4.40;;;27.20;99.90;;;;;;5071350;28;20412;-73
2023/06/09 11:02:52;;;;;;;4.93;3.30;;;27.30;99.90;;;;;;5073212;28;20766;-69
2023/06/09 11:05:20;;;;;;;8.80;4.27;;;27.30;99.90;;;;;;5071419;28;20523;-70
2023/06/09 11:07:50;;;;;;;9.57;4.90;;;26.80;99.90;;;;;;5073264;28;20484;-69
2023/06/09 11:10:19;;;;;;;8.00;3.50;;;26.60;99.90;;;;;;5072289;28;20416;-71
2023/06/09 11:12:50;;;;;;;5.10;3.73;;;26.80;99.90;;;;;;5071829;28;20789;-70
2023/06/09 11:15:16;;;;;;;12.70;4.80;;;26.80;99.90;;;;;;5072591;28;20397;-67
2023/06/09 11:17:50;;;;;;;4.20;3.83;;;26.60;99.90;;;;;;5072068;28;20412;-70
2023/06/09 11:20:22;;;;;;;6.57;4.33;;;26.70;99.90;;;;;;5060876;28;20972;-71
2023/06/09 11:22:48;;;;;;;7.60;4.80;;;27.00;99.90;;;;;;5052788;28;20930;-70
2023/06/09 11:25:20;;;;;;;6.03;4.10;;;27.40;99.90;;;;;;5052095;28;20412;-70
2023/06/09 11:27:47;;;;;;;6.83;3.90;;;27.90;99.90;;;;;;5052974;28;20628;-69
2023/06/09 11:30:18;;;;;;;7.73;4.27;;;28.30;99.90;;;;;;5051993;28;21040;-70
2023/06/09 11:32:48;;;;;;;5.80;4.77;;;28.30;99.90;;;;;;5064132;28;20456;-71
2023/06/09 11:35:40;;;;;;;6.97;4.20;;;27.60;99.90;;;;;;5072015;28;20404;-71
2023/06/09 11:38:19;;;;;;;5.03;4.13;;;27.80;99.90;;;;;;5068298;28;20412;-71
2023/06/09 11:40:52;;;;;;;10.57;4.67;;;28.40;99.90;;;;;;5071895;28;20405;-71
2023/06/09 11:43:21;;;;;;;4.53;3.50;;;28.50;99.90;;;;;;5072711;28;20420;-70
2023/06/09 11:45:47;;;;;;;12.20;4.33;;;28.40;99.90;;;;;;5071727;28;20451;-70
2023/06/09 11:48:13;;;;;;;6.00;4.40;;;28.60;99.90;;;;;;5072593;28;20896;-70
2023/06/09 11:50:45;;;;;;;10.03;4.57;;;28.90;99.90;;;;;;5071558;28;20247;-71
2023/06/09 11:53:13;;;;;;;7.77;4.50;;;28.90;99.90;;;;;;5072618;28;20531;-71
2023/06/09 11:55:39;;;;;;;11.23;3.87;;;29.30;99.90;;;;;;5072994;28;20420;-72
2023/06/09 11:58:08;;;;;;;6.60;4.23;;;29.10;99.90;;;;;;5076711;28;20411;-72
2023/06/09 12:00:38;;;;;;;9.50;4.80;;;29.20;99.90;;;;;;5073788;28;20839;-71
2023/06/09 12:03:05;;;;;;;9.97;4.27;;;29.00;99.90;;;;;;5076454;28;20416;-70
2023/06/09 12:05:31;;;;;;;9.60;4.40;;;28.80;99.90;;;;;;5075983;28;20458;-72
2023/06/09 12:07:57;;;;;;;5.83;5.23;;;29.00;99.90;;;;;;5074773;28;20440;-71
2023/06/09 12:10:26;;;;;;;8.53;4.87;;;29.70;99.90;;;;;;5075614;28;20397;-70
2023/06/09 12:12:55;;;;;;;5.53;4.40;;;29.40;99.90;;;;;;5074395;28;20459;-70
2023/06/09 12:15:23;;;;;;;11.53;5.20;;;28.80;99.90;;;;;;5076402;28;20416;-71
2023/06/09 12:17:51;;;;;;;9.77;4.33;;;28.60;99.90;;;;;;5076358;28;20412;-72
2023/06/09 12:20:32;;;;;;;6.23;5.00;;;29.30;99.90;;;;;;5075427;28;20380;-71
2023/06/09 12:23:08;;;;;;;10.30;4.90;;;29.60;99.90;;;;;;5075703;28;20784;-72
2023/06/09 12:25:44;;;;;;;5.30;4.17;;;29.60;99.90;;;;;;5076139;28;20408;-72
2023/06/09 12:28:24;;;;;;;7.60;4.80;;;29.50;99.90;;;;;;5075309;28;20864;-71
2023/06/09 12:30:51;;;;;;;6.93;4.47;;;29.40;99.90;;;;;;5075222;28;20420;-72
2023/06/09 12:33:22;;;;;;;6.40;4.13;;;29.50;99.90;;;;;;5075797;28;20451;-71
2023/06/09 12:35:50;;;;;;;6.67;3.97;;;30.00;99.90;;;;;;5076047;28;20802;-70
2023/06/09 12:38:22;;;;;;;8.50;4.93;;;30.00;99.90;;;;;;5076011;28;20753;-71
2023/06/09 12:41:15;;;;;;;5.97;5.03;;;29.70;99.90;;;;;;5074009;28;20400;-72
2023/06/09 12:43:51;;;;;;;8.47;5.77;;;28.90;99.90;;;;;;5074794;28;20817;-71
2023/06/09 12:46:28;;;;;;;7.03;4.60;;;28.60;99.90;;;;;;5075757;28;20408;-71
2023/06/09 12:48:57;;;;;;;9.83;3.67;;;28.30;99.90;;;;;;5074467;28;20913;-72
2023/06/09 12:51:24;;;;;;;6.93;4.80;;;28.40;99.90;;;;;;5074693;28;20495;-72
2023/06/09 12:53:50;;;;;;;5.93;3.80;;;28.20;99.90;;;;;;5075408;28;20460;-72